Nearby METAR Reports

 

KEQY - Monroe, North Carolina, USA
Distance from station: S 11mi, 18km
Updated: Mon, 01/26/2015 7:53pm EST
Overcast
Overcast
 Wind from NW
Wind: NW 14 mph , 22 km/h, Gust: 20 mph , 31 km/h
Temperature: 46°F , 8°C
Wind Chill: 40°F , 4°C
Dew Point: 28°F , -2°C
Humidity: 50%
Barometer: 29.71 inHg , 1006.1 hPa
Clouds: Overcast
Visibility: 10 miles , 16 km
Cloud details: Few Clouds 4900 ft
Overcast 6500 ft
2015/01/27 00:53 KEQY 270053Z AUTO 32012G17KT 10SM FEW049 OVC065 08/M02 A2971 RMK AO2 SLP077 T00781017
KJQF - Concord Reg Arpt, North Carolina, USA
Distance from station: NNW 16mi, 25km
Updated: Mon, 01/26/2015 7:55pm EST
Overcast
Overcast
 Wind from NW
Wind: NW 9 mph , 15 km/h, Gust: 20 mph , 31 km/h
Temperature: 45°F , 7°C
Wind Chill: 40°F , 4°C
Dew Point: 28°F , -2°C
Humidity: 53%
Barometer: 29.76 inHg , 1007.8 hPa
Clouds: Overcast
Visibility: 10 miles , 16 km
Cloud details: Mostly cloudy 6000 ft
Overcast 10000 ft
2015/01/27 00:55 KJQF 270055Z 32008G17KT 10SM BKN060 OVC100 07/M02 A2976
 
KCLT - Charlotte, North Carolina, USA
Distance from station: W 20mi, 33km
Updated: Mon, 01/26/2015 7:52pm EST
Overcast
Overcast
 Wind from NW
Wind: NW 12 mph , 19 km/h, Gust: 21 mph , 33 km/h
Temperature: 43°F , 6°C
Wind Chill: 37°F , 3°C
Dew Point: 27°F , -3°C
Humidity: 53%
Barometer: 29.74 inHg , 1007.1 hPa
Clouds: Overcast
Visibility: 10 miles , 16 km
Cloud details: Few Clouds 5000 ft
Mostly cloudy 7000 ft
Overcast 20000 ft
2015/01/27 00:52 KCLT 270052Z 31010G18KT 10SM FEW050 BKN070 OVC200 06/M03 A2974 RMK AO2 SLP074 T00561033
KUZA - Rock Hill, South Carolina, USA
Distance from station: WSW 29mi, 47km
Updated: Mon, 01/26/2015 7:54pm EST
Overcast
Overcast
 Wind from NW
Wind: NW 13 mph , 20 km/h
Temperature: 43°F , 6°C
Wind Chill: 36°F , 2°C
Dew Point: 28°F , -2°C
Humidity: 57%
Barometer: 29.75 inHg , 1007.5 hPa
Clouds: Overcast
Visibility: 10 miles , 16 km
Cloud details: Mostly cloudy 7000 ft
Overcast 9000 ft
2015/01/27 00:54 KUZA 270054Z AUTO 32011KT 10SM BKN070 OVC090 06/M02 A2975 RMK AO2 SLP078 T00611022
 
KVUJ - Albemarle Stanly, North Carolina, USA
Distance from station: NE 30mi, 48km
Updated: Mon, 01/26/2015 7:35pm EST
Overcast
Overcast
 Wind from NNW
Wind: NNW 7 mph , 11 km/h
Temperature: 45°F , 7°C
Wind Chill: 41°F , 5°C
Dew Point: 39°F , 4°C
Humidity: 81%
Barometer: 29.73 inHg , 1006.8 hPa
Clouds: Overcast
Visibility: 10 miles , 16 km
Cloud details: Overcast 5000 ft
2015/01/27 00:35 KVUJ 270035Z AUTO 33006KT 10SM OVC050 07/04 A2973 RMK AO2 T00710041
KAFP - Wadesboro/Anson, North Carolina, USA
Distance from station: ESE 31mi, 50km
Updated: Mon, 01/26/2015 7:55pm EST
Overcast
Overcast
 Wind from calm
Wind: Calm
Temperature: 45°F , 7°C
Dew Point: 43°F , 6°C
Humidity: 93%
Barometer: 29.70 inHg , 1005.8 hPa
Clouds: Overcast
Visibility: 10 miles , 16 km
Cloud details: Overcast 5000 ft
2015/01/27 00:55 KAFP 270055Z AUTO 00000KT 10SM OVC050 07/06 A2970 RMK AO2 T00700061
 
KAKH - Gastonia, North Carolina, USA
Distance from station: W 31mi, 51km
Updated: Mon, 01/26/2015 7:54pm EST
Overcast
Overcast
 Wind from NW
Wind: NW 8 mph , 13 km/h, Gust: 21 mph , 33 km/h
Temperature: 43°F , 6°C
Wind Chill: 38°F , 3°C
Dew Point: 25°F , -4°C
Humidity: 49%
Barometer: 29.75 inHg , 1007.5 hPa
Clouds: Overcast
Visibility: 10 miles , 16 km
Cloud details: Overcast 10000 ft
2015/01/27 00:54 KAKH 270054Z AUTO 32007G18KT 280V360 10SM OVC100 06/M04 A2975 RMK AO2 SLP078 T00611039
KRUQ - Salisbury Rowan, North Carolina, USA
Distance from station: N 33mi, 53km
Updated: Mon, 01/26/2015 7:35pm EST
Overcast
Overcast
 Wind from NW
Wind: NW 12 mph , 19 km/h, Gust: 17 mph , 28 km/h
Temperature: 43°F , 6°C
Wind Chill: 37°F , 3°C
Dew Point: 30°F , -1°C
Humidity: 61%
Barometer: 29.71 inHg , 1006.1 hPa
Clouds: Overcast
Visibility: 10 miles , 16 km
Cloud details: Overcast 6000 ft
2015/01/27 00:35 KRUQ 270035Z AUTO 32010G15KT 10SM OVC060 06/M01 A2971 RMK AO2 T00601007
 
KLKR - Lancaster, South Carolina, USA
Distance from station: SSW 35mi, 57km
Updated: Mon, 01/26/2015 7:55pm EST
Overcast
Overcast
 Wind from NW
Wind: NW 12 mph , 19 km/h, Gust: 17 mph , 28 km/h
Temperature: 46°F , 8°C
Wind Chill: 40°F , 4°C
Dew Point: 28°F , -2°C
Humidity: 50%
Barometer: 29.73 inHg , 1006.8 hPa
Clouds: Overcast
Visibility: 10 miles , 16 km
Cloud details: Overcast 7500 ft
2015/01/27 00:55 KLKR 270055Z AUTO 31010G15KT 10SM OVC075 08/M02 A2973 RMK AO2
KIPJ - Lincolnton, North Carolina, USA
Distance from station: WNW 39mi, 62km
Updated: Mon, 01/26/2015 7:55pm EST
Overcast
Overcast
 Wind from NW
Wind: NW 10 mph , 17 km/h, Gust: 16 mph , 26 km/h
Temperature: 41°F , 5°C
Wind Chill: 35°F , 2°C
Dew Point: 25°F , -4°C
Humidity: 53%
Barometer: 29.76 inHg , 1007.8 hPa
Clouds: Overcast
Visibility: 10 miles , 16 km
Cloud details: Partly cloudy 6000 ft
Overcast 9500 ft
2015/01/27 00:55 KIPJ 270055Z AUTO 32009G14KT 280V010 10SM SCT060 OVC095 05/M04 A2976 RMK AO2 T00451040
 
KDCM - Chester Catawba, South Carolina, USA
Distance from station: SW 44mi, 71km
Updated: Mon, 01/26/2015 7:55pm EST
Overcast
Overcast
 Wind from NW
Wind: NW 7 mph , 11 km/h
Temperature: 45°F , 7°C
Wind Chill: 41°F , 5°C
Dew Point: 28°F , -2°C
Humidity: 53%
Barometer: 29.75 inHg , 1007.5 hPa
Clouds: Overcast
Visibility: 10 miles , 16 km
Cloud details: Partly cloudy 7000 ft
Overcast 10000 ft
2015/01/27 00:55 KDCM 270055Z AUTO 31006KT 10SM SCT070 OVC100 07/M02 A2975 RMK AO2
KSVH - Statesville, North Carolina, USA
Distance from station: NNW 44mi, 71km
Updated: Mon, 01/26/2015 7:35pm EST
Overcast
Overcast
 Wind from WNW
Wind: WNW 12 mph , 19 km/h, Gust: 18 mph , 30 km/h
Temperature: 39°F , 4°C
Wind Chill: 32°F , 0°C
Dew Point: 28°F , -2°C
Humidity: 65%
Barometer: 29.73 inHg , 1006.8 hPa
Clouds: Overcast
Visibility: 10 miles , 16 km
Cloud details: Mostly cloudy 7500 ft
Overcast 9500 ft
2015/01/27 00:35 KSVH 270035Z AUTO 29010G16KT 10SM BKN075 OVC095 04/M02 A2973 RMK AO2 T00441025
 
KEXX - Davidson Cty Ap, North Carolina, USA
Distance from station: NNE 45mi, 72km
Updated: Mon, 01/26/2015 7:35pm EST
Overcast
Overcast
 Wind from NW
Wind: NW 6 mph , 9 km/h
Temperature: 43°F , 6°C
Wind Chill: 39°F , 4°C
Dew Point: 32°F , 0°C
Humidity: 66%
Barometer: 29.70 inHg , 1005.8 hPa
Clouds: Overcast
Visibility: 10 miles , 16 km
Cloud details: Overcast 11000 ft
2015/01/27 00:35 KEXX 270035Z AUTO 31005KT 10SM OVC110 06/00 A2970 RMK AO2 T00631004
KCQW - Cheraw, South Carolina, USA
Distance from station: SE 49mi, 78km
Updated: Mon, 01/26/2015 7:55pm EST
Mostly cloudy
Mostly cloudy
 Wind from WNW
Wind: WNW 3 mph , 6 km/h
Temperature: 45°F , 7°C
Dew Point: 41°F , 5°C
Humidity: 87%
Barometer: 29.69 inHg , 1005.4 hPa
Clouds: Mostly cloudy
Visibility: 10 miles , 16 km
Cloud details: Few Clouds 6000 ft
Mostly cloudy 7500 ft
2015/01/27 00:55 KCQW 270055Z AUTO 30003KT 10SM FEW060 BKN075 07/05 A2969 RMK AO2